createdAt,value
2019-04-21T00:00:58.526Z,9.90
2019-04-21T00:03:27.566Z,10.10
2019-04-21T00:06:09.471Z,10.30
2019-04-21T00:08:42.814Z,10.00
2019-04-21T00:11:10.751Z,9.60
2019-04-21T00:13:33.147Z,9.30
2019-04-21T00:15:53.445Z,9.20
2019-04-21T00:18:15.524Z,9.20
2019-04-21T00:20:49.519Z,9.50
2019-04-21T00:23:30.013Z,9.50
2019-04-21T00:25:52.573Z,9.00
2019-04-21T00:28:33.244Z,9.00
2019-04-21T00:30:56.877Z,9.10
2019-04-21T00:33:12.508Z,9.20
2019-04-21T00:35:42.619Z,9.10
2019-04-21T00:38:25.177Z,8.80
2019-04-21T00:40:54.099Z,9.00
2019-04-21T00:43:15.192Z,8.90
2019-04-21T00:45:43.532Z,8.80
2019-04-21T00:48:21.369Z,8.80
2019-04-21T00:51:03.441Z,8.80
2019-04-21T00:53:22.570Z,8.70
2019-04-21T00:55:53.437Z,8.40
2019-04-21T00:58:19.453Z,8.50
2019-04-21T01:00:46.015Z,8.50
2019-04-21T01:03:14.505Z,8.70
2019-04-21T01:05:49.806Z,8.50
2019-04-21T01:08:09.960Z,8.70
2019-04-21T01:10:28.765Z,9.10
2019-04-21T01:13:12.905Z,9.30
2019-04-21T01:15:37.374Z,9.30
2019-04-21T01:18:06.358Z,8.90
2019-04-21T01:20:17.256Z,9.30
2019-04-21T01:22:41.501Z,8.80
2019-04-21T01:25:19.274Z,9.30
2019-04-21T01:27:56.446Z,9.00
2019-04-21T01:30:29.171Z,8.60
2019-04-21T01:32:55.768Z,9.00
2019-04-21T01:35:25.696Z,9.20
2019-04-21T01:38:10.943Z,8.70
2019-04-21T01:42:51.111Z,8.20
2019-04-21T01:45:14.737Z,8.00
2019-04-21T01:47:40.850Z,8.20
2019-04-21T01:50:05.749Z,8.60
2019-04-21T01:52:54.638Z,8.70
2019-04-21T01:55:13.795Z,8.50
2019-04-21T01:57:37.783Z,8.40
2019-04-21T02:00:00.486Z,8.60
2019-04-21T02:02:44.823Z,8.20
2019-04-21T02:05:10.549Z,8.30
2019-04-21T02:07:40.290Z,8.40
2019-04-21T02:10:12.821Z,8.20
2019-04-21T02:12:36.142Z,8.10
2019-04-21T02:15:04.825Z,7.90
2019-04-21T02:17:31.054Z,8.10
2019-04-21T02:19:57.366Z,8.10
2019-04-21T02:22:43.107Z,8.20
2019-04-21T02:25:01.016Z,8.30
2019-04-21T02:27:23.396Z,8.30
2019-04-21T02:29:55.248Z,8.60
2019-04-21T02:32:42.100Z,8.40
2019-04-21T02:35:18.730Z,8.50
2019-04-21T02:40:04.973Z,8.10
2019-04-21T02:42:31.528Z,8.20
2019-04-21T02:44:55.452Z,7.90
2019-04-21T02:47:37.981Z,8.00
2019-04-21T02:50:00.268Z,8.10
2019-04-21T02:55:02.700Z,8.50
2019-04-21T02:57:19.034Z,8.30
2019-04-21T02:59:49.688Z,7.80
2019-04-21T03:02:14.510Z,7.90
2019-04-21T03:04:42.250Z,8.20
2019-04-21T03:07:14.887Z,8.10
2019-04-21T03:12:11.187Z,7.70
2019-04-21T03:14:46.430Z,7.60
2019-04-21T03:17:09.113Z,7.50
2019-04-21T03:22:07.138Z,7.60
2019-04-21T03:24:59.061Z,8.10
2019-04-21T03:42:02.160Z,7.50
2019-04-21T03:44:26.700Z,7.70
2019-04-21T03:47:08.452Z,7.40
2019-04-21T03:49:28.999Z,7.40
2019-04-21T03:51:47.539Z,7.40
2019-04-21T03:57:10.568Z,7.40
2019-04-21T03:59:09.510Z,7.20
2019-04-21T04:01:41.070Z,7.20
2019-04-21T04:04:22.356Z,7.20
2019-04-21T04:06:43.071Z,7.10
2019-04-21T04:14:15.830Z,7.10
2019-04-21T04:16:41.267Z,6.70
2019-04-21T04:18:57.743Z,7.00
2019-04-21T04:26:33.432Z,7.30
2019-04-21T04:28:58.026Z,7.50
2019-04-21T04:31:30.420Z,7.20
2019-04-21T04:36:46.674Z,6.90
2019-04-21T04:39:04.771Z,6.70
2019-04-21T04:41:24.449Z,6.80
2019-04-21T04:43:54.673Z,7.20
2019-04-21T04:46:17.821Z,7.50
2019-04-21T04:48:54.966Z,8.00
2019-04-21T04:51:23.006Z,7.90
2019-04-21T04:59:20.210Z,8.50
2019-04-21T05:14:02.668Z,8.70
2019-04-21T05:16:37.870Z,8.80
2019-04-21T05:19:06.347Z,9.10
2019-04-21T05:21:30.653Z,9.30
2019-04-21T05:23:50.093Z,9.60
2019-04-21T05:26:10.972Z,9.50
2019-04-21T05:28:40.691Z,9.60
2019-04-21T05:31:19.836Z,10.20
2019-04-21T05:33:57.736Z,10.10
2019-04-21T05:36:20.444Z,10.20
2019-04-21T05:38:47.786Z,10.80
2019-04-21T05:41:11.055Z,10.90
2019-04-21T05:43:51.442Z,10.80
2019-04-21T05:46:25.345Z,10.90
2019-04-21T05:48:52.608Z,10.90
2019-04-21T05:51:13.129Z,11.10
2019-04-21T05:54:03.540Z,11.50
2019-04-21T05:56:33.631Z,12.00
2019-04-21T05:58:58.139Z,12.40
2019-04-21T06:01:34.516Z,12.00
2019-04-21T06:04:05.511Z,12.50
2019-04-21T06:06:34.051Z,12.50
2019-04-21T06:09:11.065Z,12.40
2019-04-21T06:11:35.965Z,12.80
2019-04-21T06:14:08.382Z,12.90
2019-04-21T06:16:46.356Z,13.00
2019-04-21T06:19:11.486Z,13.60
2019-04-21T06:21:38.865Z,14.00
2019-04-21T06:24:15.673Z,14.10
2019-04-21T06:27:03.207Z,14.40
2019-04-21T06:29:21.559Z,14.40
2019-04-21T06:32:12.732Z,14.40
2019-04-21T06:34:28.905Z,14.40
2019-04-21T06:41:49.257Z,14.30
2019-04-21T06:44:16.863Z,13.90
2019-04-21T06:46:54.818Z,14.30
2019-04-21T06:49:15.687Z,14.70
2019-04-21T06:51:48.209Z,14.50
2019-04-21T06:54:23.891Z,14.30
2019-04-21T06:57:00.277Z,14.90
2019-04-21T07:02:22.505Z,15.00
2019-04-21T07:04:54.842Z,14.90
2019-04-21T07:07:12.935Z,15.00
2019-04-21T07:09:35.710Z,14.90
2019-04-21T07:12:07.421Z,15.20
2019-04-21T07:14:34.567Z,15.40
2019-04-21T07:17:11.375Z,15.60
2019-04-21T07:19:36.656Z,15.80
2019-04-21T07:22:04.777Z,16.00
2019-04-21T07:24:31.888Z,16.20
2019-04-21T07:27:03.895Z,16.60
2019-04-21T07:29:32.570Z,17.00
2019-04-21T07:31:58.717Z,16.50
2019-04-21T07:34:28.751Z,16.30
2019-04-21T07:36:54.834Z,16.60
2019-04-21T07:39:18.004Z,16.70
2019-04-21T07:41:43.829Z,17.10
2019-04-21T07:44:08.745Z,17.40
2019-04-21T07:46:38.630Z,17.60
2019-04-21T07:49:12.804Z,17.60
2019-04-21T07:51:51.907Z,17.60
2019-04-21T07:54:17.174Z,17.70
2019-04-21T07:56:28.762Z,17.80
2019-04-21T07:59:18.905Z,17.90
2019-04-21T08:01:35.635Z,18.00
2019-04-21T08:04:14.727Z,17.80
2019-04-21T08:06:43.801Z,17.80
2019-04-21T08:09:10.330Z,18.20
2019-04-21T08:11:32.675Z,18.50
2019-04-21T08:14:07.152Z,18.10
2019-04-21T08:16:36.831Z,18.60
2019-04-21T08:19:10.008Z,19.10
2019-04-21T08:21:40.532Z,19.20
2019-04-21T08:24:13.195Z,19.00
2019-04-21T08:26:36.898Z,19.20
2019-04-21T08:32:06.840Z,19.60
2019-04-21T08:34:28.461Z,19.50
2019-04-21T08:36:51.657Z,19.70
2019-04-21T08:42:26.745Z,19.10
2019-04-21T08:44:52.975Z,19.70
2019-04-21T08:47:30.046Z,20.20
2019-04-21T08:49:57.235Z,19.90
2019-04-21T08:52:42.739Z,19.90
2019-04-21T08:54:56.058Z,20.30
2019-04-21T08:57:35.691Z,20.40
2019-04-21T09:00:04.890Z,20.40
2019-04-21T09:02:35.143Z,20.70
2019-04-21T09:05:03.414Z,21.20
2019-04-21T09:07:36.313Z,21.50
2019-04-21T09:09:57.775Z,20.90
2019-04-21T09:12:29.097Z,20.40
2019-04-21T09:14:55.301Z,20.10
2019-04-21T09:17:22.067Z,20.50
2019-04-21T09:20:04.097Z,20.60
2019-04-21T09:22:17.416Z,20.70
2019-04-21T09:24:51.633Z,20.50
2019-04-21T09:27:14.208Z,21.00
2019-04-21T09:29:37.962Z,21.70
2019-04-21T09:31:59.614Z,21.80
2019-04-21T09:34:33.225Z,21.50
2019-04-21T09:37:10.489Z,21.10
2019-04-21T09:39:25.653Z,21.20
2019-04-21T09:41:54.531Z,21.00
2019-04-21T09:44:25.423Z,21.40
2019-04-21T09:46:52.382Z,22.00
2019-04-21T09:49:22.056Z,21.90
2019-04-21T09:51:44.323Z,21.80
2019-04-21T09:54:20.385Z,22.30
2019-04-21T09:56:48.391Z,22.60
2019-04-21T09:59:17.980Z,22.60
2019-04-21T10:01:54.991Z,21.50
2019-04-21T10:04:12.004Z,21.60
2019-04-21T10:06:39.588Z,22.40
2019-04-21T10:09:09.531Z,22.90
2019-04-21T10:11:37.758Z,23.30
2019-04-21T10:14:05.249Z,23.40
2019-04-21T10:16:34.331Z,22.40
2019-04-21T10:19:04.527Z,22.00
2019-04-21T10:21:31.913Z,22.00
2019-04-21T10:23:59.855Z,22.50
2019-04-21T10:26:26.815Z,23.30
2019-04-21T10:28:58.968Z,23.10
2019-04-21T10:31:24.842Z,22.90
2019-04-21T10:33:54.559Z,23.50
2019-04-21T10:36:24.868Z,23.70
2019-04-21T10:38:53.576Z,23.70
2019-04-21T10:41:21.785Z,23.80
2019-04-21T10:43:51.400Z,23.80
2019-04-21T10:46:22.792Z,23.10
2019-04-21T10:48:53.083Z,23.10
2019-04-21T10:51:21.227Z,23.10
2019-04-21T10:53:52.470Z,23.70
2019-04-21T10:56:27.227Z,23.70
2019-04-21T10:58:47.396Z,23.40
2019-04-21T11:01:14.223Z,23.70
2019-04-21T11:03:42.603Z,24.20
2019-04-21T11:06:10.660Z,23.90
2019-04-21T11:08:41.551Z,23.90
2019-04-21T11:11:08.134Z,24.10
2019-04-21T11:13:34.857Z,24.40
2019-04-21T11:16:05.388Z,24.80
2019-04-21T11:18:32.055Z,24.50
2019-04-21T11:21:00.909Z,24.70
2019-04-21T11:23:29.016Z,24.80
2019-04-21T11:25:55.837Z,24.50
2019-04-21T11:28:22.987Z,24.70
2019-04-21T11:30:53.083Z,24.50
2019-04-21T11:33:22.968Z,24.10
2019-04-21T11:35:53.170Z,23.30
2019-04-21T11:38:26.635Z,23.60
2019-04-21T11:40:55.923Z,23.90
2019-04-21T11:43:25.678Z,25.00
2019-04-21T11:45:54.840Z,24.70
2019-04-21T11:48:24.239Z,24.00
2019-04-21T11:50:50.983Z,23.90
2019-04-21T11:53:18.940Z,24.20
2019-04-21T11:55:50.126Z,24.50
2019-04-21T11:58:16.082Z,24.90
2019-04-21T12:00:42.509Z,24.70
2019-04-21T12:03:10.875Z,23.80
2019-04-21T12:05:39.502Z,24.30
2019-04-21T12:08:20.768Z,25.00
2019-04-21T12:10:41.850Z,25.30
2019-04-21T12:13:12.071Z,25.60
2019-04-21T12:15:39.205Z,26.20
2019-04-21T12:18:06.455Z,25.70
2019-04-21T12:20:35.420Z,25.10
2019-04-21T12:23:07.191Z,25.10
2019-04-21T12:25:34.703Z,25.50
2019-04-21T12:28:01.771Z,25.20
2019-04-21T12:30:29.442Z,25.10
2019-04-21T12:33:00.198Z,25.30
2019-04-21T12:35:30.086Z,25.90
2019-04-21T12:38:00.603Z,25.90
2019-04-21T12:40:30.646Z,24.90
2019-04-21T12:43:00.964Z,24.60
2019-04-21T12:45:31.626Z,25.60
2019-04-21T12:48:00.034Z,25.20
2019-04-21T12:50:29.985Z,25.50
2019-04-21T12:53:01.363Z,25.30
2019-04-21T12:55:35.153Z,24.90
2019-04-21T12:58:01.442Z,24.80
2019-04-21T13:00:31.235Z,25.60
2019-04-21T13:03:01.548Z,26.40
2019-04-21T13:05:31.548Z,26.40
2019-04-21T13:08:03.679Z,26.50
2019-04-21T13:10:31.828Z,25.20
2019-04-21T13:12:59.998Z,24.60
2019-04-21T13:15:31.328Z,24.90
2019-04-21T13:18:01.023Z,25.00
2019-04-21T13:20:29.651Z,25.40
2019-04-21T13:22:57.795Z,25.80
2019-04-21T13:25:27.794Z,26.20
2019-04-21T13:27:54.459Z,26.40
2019-04-21T13:33:09.223Z,26.00
2019-04-21T13:35:39.025Z,25.70
2019-04-21T13:38:17.265Z,25.50
2019-04-21T13:40:53.402Z,25.80
2019-04-21T13:43:08.287Z,25.70
2019-04-21T13:45:34.288Z,26.00
2019-04-21T13:48:10.614Z,25.60
2019-04-21T13:50:37.291Z,25.80
2019-04-21T13:53:06.846Z,25.60
2019-04-21T13:55:36.906Z,25.40
2019-04-21T13:58:04.288Z,24.40
2019-04-21T14:00:35.803Z,24.80
2019-04-21T14:03:07.019Z,25.00
2019-04-21T14:05:33.172Z,25.80
2019-04-21T14:08:01.040Z,26.30
2019-04-21T14:10:29.218Z,26.40
2019-04-21T14:12:56.374Z,26.60
2019-04-21T14:15:24.620Z,26.60
2019-04-21T14:17:53.054Z,26.50
2019-04-21T14:20:22.374Z,26.80
2019-04-21T14:22:49.701Z,27.00
2019-04-21T14:25:19.640Z,26.40
2019-04-21T14:27:49.962Z,25.60
2019-04-21T14:30:18.575Z,25.50
2019-04-21T14:32:44.790Z,26.00
2019-04-21T14:38:00.519Z,26.30
2019-04-21T14:40:31.356Z,25.50
2019-04-21T14:42:56.282Z,25.90
2019-04-21T14:45:24.982Z,26.10
2019-04-21T14:47:54.155Z,25.30
2019-04-21T14:50:22.142Z,25.40
2019-04-21T14:52:50.645Z,25.20
2019-04-21T14:55:20.826Z,25.80
2019-04-21T14:57:51.679Z,25.80
2019-04-21T15:00:20.938Z,26.20
2019-04-21T15:02:51.816Z,26.20
2019-04-21T15:05:21.791Z,26.30
2019-04-21T15:07:49.029Z,26.10
2019-04-21T15:10:23.425Z,26.00
2019-04-21T15:12:47.758Z,25.60
2019-04-21T15:15:18.093Z,25.60
2019-04-21T15:17:47.646Z,25.80
2019-04-21T15:20:17.789Z,25.90
2019-04-21T15:22:50.289Z,26.10
2019-04-21T15:28:09.615Z,26.20
2019-04-21T15:30:36.584Z,25.30
2019-04-21T15:33:04.643Z,25.10
2019-04-21T15:35:40.652Z,25.00
2019-04-21T15:38:09.847Z,25.60
2019-04-21T15:40:50.543Z,25.60
2019-04-21T15:43:10.591Z,25.60
2019-04-21T15:45:42.389Z,25.70
2019-04-21T15:48:09.734Z,25.60
2019-04-21T15:50:44.231Z,25.60
2019-04-21T15:53:09.716Z,25.80
2019-04-21T15:55:38.997Z,25.90
2019-04-21T15:58:08.499Z,25.70
2019-04-21T16:00:36.348Z,25.40
2019-04-21T16:03:06.821Z,25.00
2019-04-21T16:05:35.178Z,25.30
2019-04-21T16:08:02.194Z,25.30
2019-04-21T16:10:56.653Z,25.30
2019-04-21T16:13:21.665Z,25.30
2019-04-21T16:15:48.517Z,25.10
2019-04-21T16:18:16.159Z,24.80
2019-04-21T16:20:43.910Z,24.70
2019-04-21T16:23:10.936Z,25.10
2019-04-21T16:25:39.015Z,25.10
2019-04-21T16:28:05.941Z,24.70
2019-04-21T16:30:34.073Z,24.80
2019-04-21T16:33:01.959Z,24.70
2019-04-21T16:35:29.550Z,24.90
2019-04-21T16:37:57.872Z,24.60
2019-04-21T16:40:25.476Z,25.00
2019-04-21T16:42:52.527Z,25.10
2019-04-21T16:45:19.204Z,24.50
2019-04-21T16:47:55.990Z,25.30
2019-04-21T16:50:23.870Z,26.90
2019-04-21T16:52:52.137Z,28.80
2019-04-21T16:55:19.171Z,28.00
2019-04-21T16:57:59.602Z,26.40
2019-04-21T17:00:29.077Z,25.60
2019-04-21T17:02:52.468Z,25.00
2019-04-21T17:05:22.384Z,24.60
2019-04-21T17:07:53.086Z,24.10
2019-04-21T17:10:20.519Z,23.70
2019-04-21T17:12:47.985Z,23.40
2019-04-21T17:15:32.326Z,23.30
2019-04-21T17:18:06.435Z,23.10
2019-04-21T17:22:46.183Z,22.70
2019-04-21T17:25:16.081Z,22.70
2019-04-21T17:27:47.276Z,22.40
2019-04-21T17:30:16.622Z,22.30
2019-04-21T17:32:48.431Z,22.40
2019-04-21T17:35:12.577Z,22.40
2019-04-21T17:37:42.364Z,22.30
2019-04-21T17:40:13.450Z,22.30
2019-04-21T17:42:48.875Z,22.20
2019-04-21T17:45:11.342Z,22.00
2019-04-21T17:47:48.222Z,21.70
2019-04-21T17:50:07.794Z,21.60
2019-04-21T17:52:45.127Z,21.60
2019-04-21T17:55:16.830Z,21.60
2019-04-21T17:57:57.053Z,21.70
2019-04-21T18:00:41.442Z,21.60
2019-04-21T18:03:01.854Z,21.10
2019-04-21T18:05:30.407Z,21.20
2019-04-21T18:07:51.450Z,21.30
2019-04-21T18:10:19.207Z,21.40
2019-04-21T18:12:45.895Z,21.40
2019-04-21T18:15:21.777Z,21.20
2019-04-21T18:17:36.578Z,21.00
2019-04-21T18:20:07.872Z,20.70
2019-04-21T18:22:39.531Z,20.50
2019-04-21T18:25:10.533Z,20.20
2019-04-21T18:27:34.492Z,20.10
2019-04-21T18:30:06.427Z,20.00
2019-04-21T18:32:39.725Z,20.00
2019-04-21T18:35:07.039Z,19.80
2019-04-21T18:40:21.512Z,19.60
2019-04-21T18:43:04.440Z,19.60
2019-04-21T18:47:53.918Z,18.90
2019-04-21T18:50:08.421Z,18.20
2019-04-21T18:52:55.579Z,17.90
2019-04-21T18:55:16.333Z,17.80
2019-04-21T18:57:41.524Z,18.00
2019-04-21T19:00:11.554Z,17.90
2019-04-21T19:05:15.494Z,18.10
2019-04-21T19:07:59.841Z,18.10
2019-04-21T19:10:29.582Z,18.20
2019-04-21T19:13:23.167Z,18.20
2019-04-21T19:15:27.250Z,18.40
2019-04-21T19:18:28.294Z,18.00
2019-04-21T19:20:26.015Z,18.30
2019-04-21T19:22:52.438Z,18.10
2019-04-21T19:25:23.894Z,18.10
2019-04-21T19:27:48.802Z,17.80
2019-04-21T19:30:30.074Z,17.20
2019-04-21T19:32:49.711Z,17.10
2019-04-21T19:35:02.381Z,16.80
2019-04-21T19:37:38.864Z,17.10
2019-04-21T19:40:09.613Z,17.20
2019-04-21T19:42:37.965Z,17.40
2019-04-21T19:45:10.702Z,17.30
2019-04-21T19:47:46.026Z,17.50
2019-04-21T19:50:10.741Z,17.40
2019-04-21T19:52:31.988Z,17.10
2019-04-21T19:54:50.620Z,17.20
2019-04-21T19:57:16.915Z,17.30
2019-04-21T19:59:48.459Z,17.10
2019-04-21T20:02:14.193Z,17.00
2019-04-21T20:04:50.318Z,17.00
2019-04-21T20:07:22.883Z,16.60
2019-04-21T20:09:56.579Z,16.90
2019-04-21T20:12:34.262Z,16.60
2019-04-21T20:15:00.684Z,16.60
2019-04-21T20:17:13.663Z,16.30
2019-04-21T20:19:32.416Z,16.40
2019-04-21T20:22:00.626Z,16.50
2019-04-21T20:24:31.688Z,16.50
2019-04-21T20:27:03.591Z,16.40
2019-04-21T20:29:47.077Z,16.50
2019-04-21T20:32:20.040Z,16.40
2019-04-21T20:34:38.676Z,16.10
2019-04-21T20:37:15.015Z,16.10
2019-04-21T20:39:28.332Z,16.00
2019-04-21T20:42:16.634Z,15.90
2019-04-21T20:44:48.354Z,15.90
2019-04-21T20:47:16.610Z,15.90
2019-04-21T20:49:41.518Z,15.80
2019-04-21T20:52:23.897Z,15.50
2019-04-21T20:54:49.382Z,15.50
2019-04-21T20:57:24.119Z,15.60
2019-04-21T20:59:43.947Z,15.10
2019-04-21T21:04:56.896Z,15.30
2019-04-21T21:07:50.620Z,15.20
2019-04-21T21:10:07.282Z,15.00
2019-04-21T21:14:57.768Z,15.20
2019-04-21T21:20:02.692Z,14.90
2019-04-21T21:22:27.910Z,14.90
2019-04-21T21:24:57.113Z,14.80
2019-04-21T21:27:26.751Z,14.10
2019-04-21T21:29:56.620Z,14.30
2019-04-21T21:32:32.122Z,14.60
2019-04-21T21:34:59.645Z,14.60
2019-04-21T21:37:32.291Z,14.30
2019-04-21T21:40:04.098Z,14.40
2019-04-21T21:42:11.828Z,14.40
2019-04-21T21:44:40.764Z,14.00
2019-04-21T21:47:25.304Z,13.80
2019-04-21T21:49:52.701Z,14.00
2019-04-21T21:52:18.274Z,13.60
2019-04-21T21:54:37.960Z,14.00
2019-04-21T21:57:08.582Z,14.00
2019-04-21T21:59:38.274Z,13.80
2019-04-21T22:02:09.012Z,13.90
2019-04-21T22:04:44.463Z,14.00
2019-04-21T22:07:12.387Z,14.00
2019-04-21T22:09:36.503Z,13.90
2019-04-21T22:12:06.595Z,13.70
2019-04-21T22:14:41.071Z,13.60
2019-04-21T22:17:20.037Z,13.70
2019-04-21T22:20:01.849Z,13.70
2019-04-21T22:22:18.009Z,13.40
2019-04-21T22:24:46.960Z,13.10
2019-04-21T22:27:03.166Z,13.10
2019-04-21T22:29:36.335Z,13.20
2019-04-21T22:32:07.836Z,13.40
2019-04-21T22:34:34.290Z,13.40
2019-04-21T22:37:14.323Z,13.50
2019-04-21T22:39:44.718Z,13.10
2019-04-21T22:42:05.806Z,13.30
2019-04-21T22:44:22.797Z,13.40
2019-04-21T22:46:58.404Z,13.10
2019-04-21T22:49:19.946Z,13.10
2019-04-21T22:51:50.044Z,13.00
2019-04-21T22:54:22.827Z,12.50
2019-04-21T22:56:53.039Z,12.40
2019-04-21T22:59:20.049Z,12.30
2019-04-21T23:01:47.452Z,12.50
2019-04-21T23:04:11.989Z,12.60
2019-04-21T23:06:40.901Z,12.40
2019-04-21T23:09:08.800Z,12.60
2019-04-21T23:11:43.675Z,12.70
2019-04-21T23:14:09.688Z,12.30
2019-04-21T23:16:36.257Z,12.50
2019-04-21T23:21:55.455Z,12.70
2019-04-21T23:24:26.546Z,12.60
2019-04-21T23:26:49.310Z,12.40
2019-04-21T23:29:17.343Z,11.90
2019-04-21T23:31:52.129Z,11.70
2019-04-21T23:34:00.086Z,11.90
2019-04-21T23:36:31.365Z,12.20
2019-04-21T23:38:58.207Z,12.10
2019-04-21T23:41:26.024Z,12.00
2019-04-21T23:44:00.369Z,12.10
2019-04-21T23:46:26.746Z,12.20
2019-04-21T23:49:07.087Z,11.80
2019-04-21T23:51:31.404Z,11.80
2019-04-21T23:53:49.159Z,11.60
2019-04-21T23:56:23.195Z,11.40
2019-04-21T23:58:51.955Z,11.40
